sensor_id;sensor_type;location;lat;lon;timestamp;P1;durP1;ratioP1;P2;durP2;ratioP2
9034;SDS011;4552;43.422;24.592;2022-11-20T00:01:32;9.40;;;5.70;;
9034;SDS011;4552;43.422;24.592;2022-11-20T00:03:59;8.00;;;5.27;;
9034;SDS011;4552;43.422;24.592;2022-11-20T00:06:27;7.40;;;5.30;;
9034;SDS011;4552;43.422;24.592;2022-11-20T00:08:55;8.10;;;5.13;;
9034;SDS011;4552;43.422;24.592;2022-11-20T00:11:25;9.37;;;5.70;;
9034;SDS011;4552;43.422;24.592;2022-11-20T00:13:54;8.23;;;5.40;;
9034;SDS011;4552;43.422;24.592;2022-11-20T00:16:23;7.87;;;5.43;;
9034;SDS011;4552;43.422;24.592;2022-11-20T00:18:53;10.17;;;6.20;;
9034;SDS011;4552;43.422;24.592;2022-11-20T00:21:21;8.53;;;6.10;;
9034;SDS011;4552;43.422;24.592;2022-11-20T00:23:50;10.02;;;6.80;;
9034;SDS011;4552;43.422;24.592;2022-11-20T00:26:19;6.63;;;5.17;;
9034;SDS011;4552;43.422;24.592;2022-11-20T00:28:49;7.90;;;5.40;;
9034;SDS011;4552;43.422;24.592;2022-11-20T00:31:17;8.27;;;4.97;;
9034;SDS011;4552;43.422;24.592;2022-11-20T00:33:44;10.40;;;6.17;;
9034;SDS011;4552;43.422;24.592;2022-11-20T00:36:13;10.70;;;5.57;;
9034;SDS011;4552;43.422;24.592;2022-11-20T00:38:43;9.73;;;5.83;;
9034;SDS011;4552;43.422;24.592;2022-11-20T00:41:11;7.97;;;5.47;;
9034;SDS011;4552;43.422;24.592;2022-11-20T00:43:39;7.90;;;5.13;;
9034;SDS011;4552;43.422;24.592;2022-11-20T00:46:07;7.40;;;5.87;;
9034;SDS011;4552;43.422;24.592;2022-11-20T00:48:36;9.17;;;5.97;;
9034;SDS011;4552;43.422;24.592;2022-11-20T00:51:03;9.87;;;6.43;;
9034;SDS011;4552;43.422;24.592;2022-11-20T00:53:33;9.77;;;5.70;;
9034;SDS011;4552;43.422;24.592;2022-11-20T00:56:01;10.50;;;5.77;;
9034;SDS011;4552;43.422;24.592;2022-11-20T00:58:34;7.43;;;5.07;;
9034;SDS011;4552;43.422;24.592;2022-11-20T01:01:03;8.77;;;5.93;;
9034;SDS011;4552;43.422;24.592;2022-11-20T01:03:33;7.90;;;5.10;;
9034;SDS011;4552;43.422;24.592;2022-11-20T01:06:01;8.80;;;5.40;;
9034;SDS011;4552;43.422;24.592;2022-11-20T01:08:31;8.30;;;5.07;;
9034;SDS011;4552;43.422;24.592;2022-11-20T01:11:00;8.10;;;5.73;;
9034;SDS011;4552;43.422;24.592;2022-11-20T01:13:28;9.33;;;5.90;;
9034;SDS011;4552;43.422;24.592;2022-11-20T01:16:05;7.43;;;5.57;;
9034;SDS011;4552;43.422;24.592;2022-11-20T01:18:33;7.30;;;5.33;;
9034;SDS011;4552;43.422;24.592;2022-11-20T01:21:01;9.10;;;5.67;;
9034;SDS011;4552;43.422;24.592;2022-11-20T01:23:34;9.47;;;5.83;;
9034;SDS011;4552;43.422;24.592;2022-11-20T01:26:03;8.00;;;6.53;;
9034;SDS011;4552;43.422;24.592;2022-11-20T01:28:32;9.83;;;7.00;;
9034;SDS011;4552;43.422;24.592;2022-11-20T01:30:59;13.37;;;6.90;;
9034;SDS011;4552;43.422;24.592;2022-11-20T01:33:27;11.53;;;6.87;;
9034;SDS011;4552;43.422;24.592;2022-11-20T01:36:02;10.33;;;6.33;;
9034;SDS011;4552;43.422;24.592;2022-11-20T01:38:30;8.87;;;6.13;;
9034;SDS011;4552;43.422;24.592;2022-11-20T01:40:59;7.23;;;5.70;;
9034;SDS011;4552;43.422;24.592;2022-11-20T01:43:27;10.40;;;5.53;;
9034;SDS011;4552;43.422;24.592;2022-11-20T01:46:08;8.30;;;6.10;;
9034;SDS011;4552;43.422;24.592;2022-11-20T01:48:44;8.87;;;6.30;;
9034;SDS011;4552;43.422;24.592;2022-11-20T01:51:19;9.47;;;5.80;;
9034;SDS011;4552;43.422;24.592;2022-11-20T01:53:52;8.07;;;5.43;;
9034;SDS011;4552;43.422;24.592;2022-11-20T01:56:22;7.40;;;5.67;;
9034;SDS011;4552;43.422;24.592;2022-11-20T01:58:51;9.30;;;5.63;;
9034;SDS011;4552;43.422;24.592;2022-11-20T02:01:23;9.83;;;6.43;;
9034;SDS011;4552;43.422;24.592;2022-11-20T02:03:50;8.83;;;6.00;;
9034;SDS011;4552;43.422;24.592;2022-11-20T02:06:19;13.10;;;6.73;;
9034;SDS011;4552;43.422;24.592;2022-11-20T02:08:50;9.80;;;5.80;;
9034;SDS011;4552;43.422;24.592;2022-11-20T02:11:19;8.90;;;5.77;;
9034;SDS011;4552;43.422;24.592;2022-11-20T02:13:49;8.27;;;5.40;;
9034;SDS011;4552;43.422;24.592;2022-11-20T02:16:16;10.53;;;6.50;;
9034;SDS011;4552;43.422;24.592;2022-11-20T02:18:47;8.73;;;6.23;;
9034;SDS011;4552;43.422;24.592;2022-11-20T02:21:26;10.43;;;6.40;;
9034;SDS011;4552;43.422;24.592;2022-11-20T02:24:03;10.63;;;6.07;;
9034;SDS011;4552;43.422;24.592;2022-11-20T02:26:35;8.80;;;6.20;;
9034;SDS011;4552;43.422;24.592;2022-11-20T02:29:10;8.57;;;6.30;;
9034;SDS011;4552;43.422;24.592;2022-11-20T02:31:40;10.57;;;5.80;;
9034;SDS011;4552;43.422;24.592;2022-11-20T02:34:10;10.27;;;6.97;;
9034;SDS011;4552;43.422;24.592;2022-11-20T02:36:37;10.50;;;6.67;;
9034;SDS011;4552;43.422;24.592;2022-11-20T02:39:12;10.63;;;7.03;;
9034;SDS011;4552;43.422;24.592;2022-11-20T02:41:44;10.20;;;6.50;;
9034;SDS011;4552;43.422;24.592;2022-11-20T02:44:12;10.60;;;6.63;;
9034;SDS011;4552;43.422;24.592;2022-11-20T02:46:39;9.03;;;5.63;;
9034;SDS011;4552;43.422;24.592;2022-11-20T02:49:06;17.43;;;8.17;;
9034;SDS011;4552;43.422;24.592;2022-11-20T02:51:33;14.57;;;8.70;;
9034;SDS011;4552;43.422;24.592;2022-11-20T02:54:01;12.90;;;7.33;;
9034;SDS011;4552;43.422;24.592;2022-11-20T02:56:29;15.03;;;7.13;;
9034;SDS011;4552;43.422;24.592;2022-11-20T02:58:57;21.80;;;8.57;;
9034;SDS011;4552;43.422;24.592;2022-11-20T03:01:24;14.00;;;7.17;;
9034;SDS011;4552;43.422;24.592;2022-11-20T03:03:51;11.57;;;7.33;;
9034;SDS011;4552;43.422;24.592;2022-11-20T03:06:19;13.43;;;7.07;;
9034;SDS011;4552;43.422;24.592;2022-11-20T03:08:47;11.63;;;7.47;;
9034;SDS011;4552;43.422;24.592;2022-11-20T03:11:14;13.00;;;7.60;;
9034;SDS011;4552;43.422;24.592;2022-11-20T03:13:44;13.47;;;7.13;;
9034;SDS011;4552;43.422;24.592;2022-11-20T03:16:11;11.03;;;6.63;;
9034;SDS011;4552;43.422;24.592;2022-11-20T03:18:41;11.33;;;7.33;;
9034;SDS011;4552;43.422;24.592;2022-11-20T03:21:09;12.47;;;7.03;;
9034;SDS011;4552;43.422;24.592;2022-11-20T03:23:37;13.30;;;8.00;;
9034;SDS011;4552;43.422;24.592;2022-11-20T03:26:08;11.70;;;7.33;;
9034;SDS011;4552;43.422;24.592;2022-11-20T03:28:40;10.20;;;6.83;;
9034;SDS011;4552;43.422;24.592;2022-11-20T03:31:11;11.67;;;7.13;;
9034;SDS011;4552;43.422;24.592;2022-11-20T03:33:40;12.50;;;7.40;;
9034;SDS011;4552;43.422;24.592;2022-11-20T03:36:09;13.33;;;6.70;;
9034;SDS011;4552;43.422;24.592;2022-11-20T03:38:38;13.10;;;7.07;;
9034;SDS011;4552;43.422;24.592;2022-11-20T03:41:06;16.77;;;8.13;;
9034;SDS011;4552;43.422;24.592;2022-11-20T03:43:34;13.80;;;8.33;;
9034;SDS011;4552;43.422;24.592;2022-11-20T03:46:02;18.50;;;8.50;;
9034;SDS011;4552;43.422;24.592;2022-11-20T03:48:31;14.40;;;7.53;;
9034;SDS011;4552;43.422;24.592;2022-11-20T03:51:11;15.47;;;7.77;;
9034;SDS011;4552;43.422;24.592;2022-11-20T03:53:40;18.43;;;8.97;;
9034;SDS011;4552;43.422;24.592;2022-11-20T03:56:08;13.30;;;8.20;;
9034;SDS011;4552;43.422;24.592;2022-11-20T03:58:37;15.53;;;8.50;;
9034;SDS011;4552;43.422;24.592;2022-11-20T04:01:06;13.23;;;8.77;;
9034;SDS011;4552;43.422;24.592;2022-11-20T04:03:39;15.90;;;8.63;;
9034;SDS011;4552;43.422;24.592;2022-11-20T04:06:11;14.43;;;8.50;;
9034;SDS011;4552;43.422;24.592;2022-11-20T04:08:40;16.73;;;8.80;;
9034;SDS011;4552;43.422;24.592;2022-11-20T04:11:08;18.67;;;9.27;;
9034;SDS011;4552;43.422;24.592;2022-11-20T04:13:36;17.67;;;9.23;;
9034;SDS011;4552;43.422;24.592;2022-11-20T04:16:03;19.37;;;9.23;;
9034;SDS011;4552;43.422;24.592;2022-11-20T04:18:31;17.63;;;9.07;;
9034;SDS011;4552;43.422;24.592;2022-11-20T04:21:00;21.57;;;10.33;;
9034;SDS011;4552;43.422;24.592;2022-11-20T04:23:27;19.87;;;9.73;;
9034;SDS011;4552;43.422;24.592;2022-11-20T04:25:59;18.40;;;9.70;;
9034;SDS011;4552;43.422;24.592;2022-11-20T04:28:30;19.87;;;10.27;;
9034;SDS011;4552;43.422;24.592;2022-11-20T04:31:04;20.70;;;9.80;;
9034;SDS011;4552;43.422;24.592;2022-11-20T04:33:32;17.77;;;9.27;;
9034;SDS011;4552;43.422;24.592;2022-11-20T04:36:03;20.33;;;10.77;;
9034;SDS011;4552;43.422;24.592;2022-11-20T04:38:32;21.10;;;10.83;;
9034;SDS011;4552;43.422;24.592;2022-11-20T04:40:59;19.77;;;9.50;;
9034;SDS011;4552;43.422;24.592;2022-11-20T04:43:27;19.10;;;10.00;;
9034;SDS011;4552;43.422;24.592;2022-11-20T04:45:54;20.33;;;9.87;;
9034;SDS011;4552;43.422;24.592;2022-11-20T04:48:27;15.53;;;9.67;;
9034;SDS011;4552;43.422;24.592;2022-11-20T04:50:55;26.57;;;10.87;;
9034;SDS011;4552;43.422;24.592;2022-11-20T04:53:26;16.90;;;9.13;;
9034;SDS011;4552;43.422;24.592;2022-11-20T04:55:59;19.50;;;10.43;;
9034;SDS011;4552;43.422;24.592;2022-11-20T04:58:26;24.07;;;10.67;;
9034;SDS011;4552;43.422;24.592;2022-11-20T05:01:00;18.00;;;10.27;;
9034;SDS011;4552;43.422;24.592;2022-11-20T05:03:28;18.80;;;9.90;;
9034;SDS011;4552;43.422;24.592;2022-11-20T05:05:55;18.17;;;10.70;;
9034;SDS011;4552;43.422;24.592;2022-11-20T05:08:26;21.90;;;12.53;;
9034;SDS011;4552;43.422;24.592;2022-11-20T05:10:53;23.20;;;12.67;;
9034;SDS011;4552;43.422;24.592;2022-11-20T05:13:20;29.90;;;12.17;;
9034;SDS011;4552;43.422;24.592;2022-11-20T05:15:47;19.90;;;11.53;;
9034;SDS011;4552;43.422;24.592;2022-11-20T05:18:14;20.60;;;10.13;;
9034;SDS011;4552;43.422;24.592;2022-11-20T05:20:41;21.60;;;10.93;;
9034;SDS011;4552;43.422;24.592;2022-11-20T05:23:09;17.63;;;9.90;;
9034;SDS011;4552;43.422;24.592;2022-11-20T05:25:38;25.60;;;10.93;;
9034;SDS011;4552;43.422;24.592;2022-11-20T05:28:06;21.87;;;10.93;;
9034;SDS011;4552;43.422;24.592;2022-11-20T05:30:33;23.50;;;10.33;;
9034;SDS011;4552;43.422;24.592;2022-11-20T05:33:00;19.00;;;10.83;;
9034;SDS011;4552;43.422;24.592;2022-11-20T05:35:27;26.13;;;11.73;;
9034;SDS011;4552;43.422;24.592;2022-11-20T05:37:54;22.57;;;11.53;;
9034;SDS011;4552;43.422;24.592;2022-11-20T05:40:22;19.20;;;10.87;;
9034;SDS011;4552;43.422;24.592;2022-11-20T05:42:50;19.30;;;11.50;;
9034;SDS011;4552;43.422;24.592;2022-11-20T05:45:17;24.53;;;11.63;;
9034;SDS011;4552;43.422;24.592;2022-11-20T05:47:44;23.17;;;10.60;;
9034;SDS011;4552;43.422;24.592;2022-11-20T05:50:12;20.90;;;12.03;;
9034;SDS011;4552;43.422;24.592;2022-11-20T05:52:39;18.70;;;10.63;;
9034;SDS011;4552;43.422;24.592;2022-11-20T05:55:07;18.83;;;10.90;;
9034;SDS011;4552;43.422;24.592;2022-11-20T05:57:34;23.70;;;11.60;;
9034;SDS011;4552;43.422;24.592;2022-11-20T06:00:07;20.50;;;11.27;;
9034;SDS011;4552;43.422;24.592;2022-11-20T06:02:36;18.00;;;11.63;;
9034;SDS011;4552;43.422;24.592;2022-11-20T06:05:05;25.97;;;11.77;;
9034;SDS011;4552;43.422;24.592;2022-11-20T06:07:33;29.00;;;13.60;;
9034;SDS011;4552;43.422;24.592;2022-11-20T06:10:00;24.60;;;12.87;;
9034;SDS011;4552;43.422;24.592;2022-11-20T06:12:27;23.43;;;11.60;;
9034;SDS011;4552;43.422;24.592;2022-11-20T06:14:54;21.37;;;11.00;;
9034;SDS011;4552;43.422;24.592;2022-11-20T06:17:23;22.10;;;10.67;;
9034;SDS011;4552;43.422;24.592;2022-11-20T06:19:50;22.00;;;12.10;;
9034;SDS011;4552;43.422;24.592;2022-11-20T06:22:19;22.83;;;11.87;;
9034;SDS011;4552;43.422;24.592;2022-11-20T06:24:47;23.23;;;11.57;;
9034;SDS011;4552;43.422;24.592;2022-11-20T06:27:15;23.23;;;11.53;;
9034;SDS011;4552;43.422;24.592;2022-11-20T06:29:43;23.77;;;13.37;;
9034;SDS011;4552;43.422;24.592;2022-11-20T06:32:10;23.60;;;12.50;;
9034;SDS011;4552;43.422;24.592;2022-11-20T06:34:39;19.93;;;11.03;;
9034;SDS011;4552;43.422;24.592;2022-11-20T06:37:06;24.73;;;11.87;;
9034;SDS011;4552;43.422;24.592;2022-11-20T06:39:33;27.70;;;12.90;;
9034;SDS011;4552;43.422;24.592;2022-11-20T06:42:00;21.20;;;11.87;;
9034;SDS011;4552;43.422;24.592;2022-11-20T06:44:28;24.50;;;11.27;;
9034;SDS011;4552;43.422;24.592;2022-11-20T06:46:55;23.53;;;11.80;;
9034;SDS011;4552;43.422;24.592;2022-11-20T06:49:24;23.03;;;11.50;;
9034;SDS011;4552;43.422;24.592;2022-11-20T06:51:54;25.70;;;11.30;;
9034;SDS011;4552;43.422;24.592;2022-11-20T06:54:20;20.77;;;11.43;;
9034;SDS011;4552;43.422;24.592;2022-11-20T06:56:48;25.47;;;13.67;;
9034;SDS011;4552;43.422;24.592;2022-11-20T06:59:17;28.87;;;12.70;;
9034;SDS011;4552;43.422;24.592;2022-11-20T07:01:52;22.30;;;12.60;;
9034;SDS011;4552;43.422;24.592;2022-11-20T07:04:19;19.40;;;11.27;;
9034;SDS011;4552;43.422;24.592;2022-11-20T07:06:48;23.33;;;11.27;;
9034;SDS011;4552;43.422;24.592;2022-11-20T07:09:17;20.27;;;11.20;;
9034;SDS011;4552;43.422;24.592;2022-11-20T07:11:44;20.60;;;11.20;;
9034;SDS011;4552;43.422;24.592;2022-11-20T07:14:12;20.23;;;11.27;;
9034;SDS011;4552;43.422;24.592;2022-11-20T07:16:40;22.13;;;11.53;;
9034;SDS011;4552;43.422;24.592;2022-11-20T07:19:07;20.77;;;10.93;;
9034;SDS011;4552;43.422;24.592;2022-11-20T07:21:35;20.25;;;11.68;;
9034;SDS011;4552;43.422;24.592;2022-11-20T07:24:03;19.33;;;11.33;;
9034;SDS011;4552;43.422;24.592;2022-11-20T07:26:32;21.10;;;10.90;;
9034;SDS011;4552;43.422;24.592;2022-11-20T07:29:01;22.13;;;10.63;;
9034;SDS011;4552;43.422;24.592;2022-11-20T07:31:28;22.73;;;11.23;;
9034;SDS011;4552;43.422;24.592;2022-11-20T07:33:55;21.13;;;12.00;;
9034;SDS011;4552;43.422;24.592;2022-11-20T07:36:22;18.13;;;10.80;;
9034;SDS011;4552;43.422;24.592;2022-11-20T07:38:49;21.37;;;10.67;;
9034;SDS011;4552;43.422;24.592;2022-11-20T07:41:24;17.97;;;10.13;;
9034;SDS011;4552;43.422;24.592;2022-11-20T07:43:55;20.37;;;10.80;;
9034;SDS011;4552;43.422;24.592;2022-11-20T07:46:23;18.93;;;9.73;;
9034;SDS011;4552;43.422;24.592;2022-11-20T07:48:50;21.40;;;10.83;;
9034;SDS011;4552;43.422;24.592;2022-11-20T07:51:18;18.93;;;10.23;;
9034;SDS011;4552;43.422;24.592;2022-11-20T07:53:45;17.90;;;9.43;;
9034;SDS011;4552;43.422;24.592;2022-11-20T07:56:15;19.97;;;9.87;;
9034;SDS011;4552;43.422;24.592;2022-11-20T07:58:43;16.37;;;9.93;;
9034;SDS011;4552;43.422;24.592;2022-11-20T08:01:12;21.87;;;11.80;;
9034;SDS011;4552;43.422;24.592;2022-11-20T08:03:39;20.30;;;10.53;;
9034;SDS011;4552;43.422;24.592;2022-11-20T08:06:11;25.23;;;15.00;;
9034;SDS011;4552;43.422;24.592;2022-11-20T08:08:39;18.77;;;10.57;;
9034;SDS011;4552;43.422;24.592;2022-11-20T08:11:07;19.23;;;9.80;;
9034;SDS011;4552;43.422;24.592;2022-11-20T08:13:51;20.53;;;11.20;;
9034;SDS011;4552;43.422;24.592;2022-11-20T08:16:43;16.37;;;9.90;;
9034;SDS011;4552;43.422;24.592;2022-11-20T08:19:11;18.37;;;9.27;;
9034;SDS011;4552;43.422;24.592;2022-11-20T08:21:39;14.77;;;9.07;;
9034;SDS011;4552;43.422;24.592;2022-11-20T08:24:10;19.27;;;10.50;;
9034;SDS011;4552;43.422;24.592;2022-11-20T08:26:38;15.37;;;9.20;;
9034;SDS011;4552;43.422;24.592;2022-11-20T08:29:06;19.80;;;9.90;;
9034;SDS011;4552;43.422;24.592;2022-11-20T08:31:33;15.87;;;9.37;;
9034;SDS011;4552;43.422;24.592;2022-11-20T08:34:05;16.23;;;8.83;;
9034;SDS011;4552;43.422;24.592;2022-11-20T08:36:46;15.53;;;9.23;;
9034;SDS011;4552;43.422;24.592;2022-11-20T08:39:24;13.53;;;8.43;;
9034;SDS011;4552;43.422;24.592;2022-11-20T08:41:54;16.67;;;9.55;;
9034;SDS011;4552;43.422;24.592;2022-11-20T08:44:24;15.33;;;8.73;;
9034;SDS011;4552;43.422;24.592;2022-11-20T08:46:51;13.47;;;7.73;;
9034;SDS011;4552;43.422;24.592;2022-11-20T08:49:20;17.77;;;8.67;;
9034;SDS011;4552;43.422;24.592;2022-11-20T08:51:48;14.37;;;8.13;;
9034;SDS011;4552;43.422;24.592;2022-11-20T08:54:20;14.07;;;8.53;;
9034;SDS011;4552;43.422;24.592;2022-11-20T08:56:47;14.33;;;8.73;;
9034;SDS011;4552;43.422;24.592;2022-11-20T08:59:15;15.70;;;8.87;;
9034;SDS011;4552;43.422;24.592;2022-11-20T09:01:42;14.33;;;8.33;;
9034;SDS011;4552;43.422;24.592;2022-11-20T09:04:13;13.35;;;8.43;;
9034;SDS011;4552;43.422;24.592;2022-11-20T09:06:42;14.73;;;8.60;;
9034;SDS011;4552;43.422;24.592;2022-11-20T09:09:09;12.87;;;7.43;;
9034;SDS011;4552;43.422;24.592;2022-11-20T09:11:36;11.60;;;8.37;;
9034;SDS011;4552;43.422;24.592;2022-11-20T09:14:03;18.17;;;9.00;;
9034;SDS011;4552;43.422;24.592;2022-11-20T09:16:30;13.13;;;7.27;;
9034;SDS011;4552;43.422;24.592;2022-11-20T09:18:58;12.63;;;7.63;;
9034;SDS011;4552;43.422;24.592;2022-11-20T09:21:25;11.87;;;7.80;;
9034;SDS011;4552;43.422;24.592;2022-11-20T09:23:54;14.27;;;8.50;;
9034;SDS011;4552;43.422;24.592;2022-11-20T09:26:21;11.83;;;6.50;;
9034;SDS011;4552;43.422;24.592;2022-11-20T09:28:48;10.07;;;6.13;;
9034;SDS011;4552;43.422;24.592;2022-11-20T09:31:17;11.70;;;7.63;;
9034;SDS011;4552;43.422;24.592;2022-11-20T09:33:49;13.27;;;7.93;;
9034;SDS011;4552;43.422;24.592;2022-11-20T09:36:16;11.70;;;7.53;;
9034;SDS011;4552;43.422;24.592;2022-11-20T09:38:43;10.20;;;7.07;;
9034;SDS011;4552;43.422;24.592;2022-11-20T09:44:22;9.80;;;6.27;;
9034;SDS011;4552;43.422;24.592;2022-11-20T09:47:07;11.00;;;6.93;;
9034;SDS011;4552;43.422;24.592;2022-11-20T09:49:44;11.70;;;7.57;;
9034;SDS011;4552;43.422;24.592;2022-11-20T09:52:28;12.97;;;7.10;;
9034;SDS011;4552;43.422;24.592;2022-11-20T09:55:06;12.47;;;8.17;;
9034;SDS011;4552;43.422;24.592;2022-11-20T09:57:37;12.37;;;7.43;;
9034;SDS011;4552;43.422;24.592;2022-11-20T10:00:11;12.93;;;7.63;;
9034;SDS011;4552;43.422;24.592;2022-11-20T10:02:41;13.67;;;7.50;;
9034;SDS011;4552;43.422;24.592;2022-11-20T10:05:15;9.97;;;6.67;;
9034;SDS011;4552;43.422;24.592;2022-11-20T10:07:47;11.00;;;7.23;;
9034;SDS011;4552;43.422;24.592;2022-11-20T10:10:22;11.00;;;6.63;;
9034;SDS011;4552;43.422;24.592;2022-11-20T10:13:01;9.60;;;6.83;;
9034;SDS011;4552;43.422;24.592;2022-11-20T10:15:45;10.23;;;6.73;;
9034;SDS011;4552;43.422;24.592;2022-11-20T10:18:22;11.77;;;7.67;;
9034;SDS011;4552;43.422;24.592;2022-11-20T10:21:00;11.70;;;7.00;;
9034;SDS011;4552;43.422;24.592;2022-11-20T10:26:40;10.93;;;6.70;;
9034;SDS011;4552;43.422;24.592;2022-11-20T10:29:19;10.40;;;6.67;;
9034;SDS011;4552;43.422;24.592;2022-11-20T10:31:54;8.70;;;6.60;;
9034;SDS011;4552;43.422;24.592;2022-11-20T10:34:28;10.07;;;6.37;;
9034;SDS011;4552;43.422;24.592;2022-11-20T10:37:02;10.47;;;6.67;;
9034;SDS011;4552;43.422;24.592;2022-11-20T10:39:37;9.40;;;6.77;;
9034;SDS011;4552;43.422;24.592;2022-11-20T10:42:11;10.40;;;6.53;;
9034;SDS011;4552;43.422;24.592;2022-11-20T10:44:43;10.00;;;7.10;;
9034;SDS011;4552;43.422;24.592;2022-11-20T10:47:35;10.07;;;6.57;;
9034;SDS011;4552;43.422;24.592;2022-11-20T10:50:03;11.10;;;7.43;;
9034;SDS011;4552;43.422;24.592;2022-11-20T10:52:37;13.67;;;7.60;;
9034;SDS011;4552;43.422;24.592;2022-11-20T10:55:17;12.03;;;7.27;;
9034;SDS011;4552;43.422;24.592;2022-11-20T10:57:54;19.97;;;10.70;;
9034;SDS011;4552;43.422;24.592;2022-11-20T11:00:32;14.90;;;8.70;;
9034;SDS011;4552;43.422;24.592;2022-11-20T11:03:01;13.20;;;7.53;;
9034;SDS011;4552;43.422;24.592;2022-11-20T11:05:33;14.27;;;9.35;;
9034;SDS011;4552;43.422;24.592;2022-11-20T11:08:05;11.70;;;7.77;;
9034;SDS011;4552;43.422;24.592;2022-11-20T11:10:45;13.70;;;8.17;;
9034;SDS011;4552;43.422;24.592;2022-11-20T11:13:24;13.03;;;7.97;;
9034;SDS011;4552;43.422;24.592;2022-11-20T11:16:00;13.67;;;8.70;;
9034;SDS011;4552;43.422;24.592;2022-11-20T11:18:34;16.30;;;9.77;;
9034;SDS011;4552;43.422;24.592;2022-11-20T11:21:05;12.10;;;8.40;;
9034;SDS011;4552;43.422;24.592;2022-11-20T11:23:36;13.30;;;8.70;;
9034;SDS011;4552;43.422;24.592;2022-11-20T11:26:07;16.03;;;9.90;;
9034;SDS011;4552;43.422;24.592;2022-11-20T11:28:52;20.13;;;9.67;;
9034;SDS011;4552;43.422;24.592;2022-11-20T11:31:27;18.80;;;10.23;;
9034;SDS011;4552;43.422;24.592;2022-11-20T11:34:05;16.63;;;10.40;;
9034;SDS011;4552;43.422;24.592;2022-11-20T11:36:47;16.60;;;10.17;;
9034;SDS011;4552;43.422;24.592;2022-11-20T11:39:25;17.37;;;10.87;;
9034;SDS011;4552;43.422;24.592;2022-11-20T11:42:10;18.67;;;10.93;;
9034;SDS011;4552;43.422;24.592;2022-11-20T11:44:46;18.17;;;10.77;;
9034;SDS011;4552;43.422;24.592;2022-11-20T11:47:43;17.90;;;11.00;;
9034;SDS011;4552;43.422;24.592;2022-11-20T11:50:26;21.37;;;10.57;;
9034;SDS011;4552;43.422;24.592;2022-11-20T11:53:09;19.13;;;10.93;;
9034;SDS011;4552;43.422;24.592;2022-11-20T11:56:11;16.77;;;9.83;;
9034;SDS011;4552;43.422;24.592;2022-11-20T11:58:43;15.03;;;9.00;;
9034;SDS011;4552;43.422;24.592;2022-11-20T12:01:20;15.00;;;9.07;;
9034;SDS011;4552;43.422;24.592;2022-11-20T12:03:55;15.73;;;9.00;;
9034;SDS011;4552;43.422;24.592;2022-11-20T12:09:20;17.33;;;10.17;;
9034;SDS011;4552;43.422;24.592;2022-11-20T12:12:02;18.50;;;10.13;;
9034;SDS011;4552;43.422;24.592;2022-11-20T12:14:37;12.27;;;8.30;;
9034;SDS011;4552;43.422;24.592;2022-11-20T12:17:09;19.13;;;10.07;;
9034;SDS011;4552;43.422;24.592;2022-11-20T12:19:46;16.97;;;10.07;;
9034;SDS011;4552;43.422;24.592;2022-11-20T12:22:40;16.30;;;10.17;;
9034;SDS011;4552;43.422;24.592;2022-11-20T12:25:24;17.53;;;9.83;;
9034;SDS011;4552;43.422;24.592;2022-11-20T12:28:00;13.03;;;8.70;;
9034;SDS011;4552;43.422;24.592;2022-11-20T12:30:55;12.57;;;8.00;;
9034;SDS011;4552;43.422;24.592;2022-11-20T12:34:29;16.47;;;9.07;;
9034;SDS011;4552;43.422;24.592;2022-11-20T12:37:46;14.20;;;9.03;;
9034;SDS011;4552;43.422;24.592;2022-11-20T12:40:26;17.97;;;9.13;;
9034;SDS011;4552;43.422;24.592;2022-11-20T12:43:01;16.77;;;11.23;;
9034;SDS011;4552;43.422;24.592;2022-11-20T12:46:03;19.13;;;9.33;;
9034;SDS011;4552;43.422;24.592;2022-11-20T12:52:08;24.73;;;13.20;;
9034;SDS011;4552;43.422;24.592;2022-11-20T12:55:03;16.50;;;9.43;;
9034;SDS011;4552;43.422;24.592;2022-11-20T12:58:20;16.50;;;8.40;;
9034;SDS011;4552;43.422;24.592;2022-11-20T13:01:00;13.90;;;9.43;;
9034;SDS011;4552;43.422;24.592;2022-11-20T13:04:12;14.67;;;9.43;;
9034;SDS011;4552;43.422;24.592;2022-11-20T13:07:14;15.63;;;8.63;;
9034;SDS011;4552;43.422;24.592;2022-11-20T13:09:44;14.13;;;7.77;;
9034;SDS011;4552;43.422;24.592;2022-11-20T13:12:15;12.37;;;7.87;;
9034;SDS011;4552;43.422;24.592;2022-11-20T13:14:53;12.70;;;7.10;;
9034;SDS011;4552;43.422;24.592;2022-11-20T13:17:28;13.63;;;7.87;;
9034;SDS011;4552;43.422;24.592;2022-11-20T13:20:05;10.77;;;7.40;;
9034;SDS011;4552;43.422;24.592;2022-11-20T13:22:43;12.47;;;6.93;;
9034;SDS011;4552;43.422;24.592;2022-11-20T13:28:27;13.90;;;8.52;;
9034;SDS011;4552;43.422;24.592;2022-11-20T13:31:30;13.20;;;7.23;;
9034;SDS011;4552;43.422;24.592;2022-11-20T13:33:59;11.17;;;7.57;;
9034;SDS011;4552;43.422;24.592;2022-11-20T13:36:29;10.87;;;7.33;;
9034;SDS011;4552;43.422;24.592;2022-11-20T13:39:03;11.20;;;7.90;;
9034;SDS011;4552;43.422;24.592;2022-11-20T13:41:33;13.83;;;7.57;;
9034;SDS011;4552;43.422;24.592;2022-11-20T13:44:22;12.97;;;8.40;;
9034;SDS011;4552;43.422;24.592;2022-11-20T13:47:02;11.60;;;7.17;;
9034;SDS011;4552;43.422;24.592;2022-11-20T13:49:31;11.37;;;7.33;;
9034;SDS011;4552;43.422;24.592;2022-11-20T13:52:33;15.27;;;8.70;;
9034;SDS011;4552;43.422;24.592;2022-11-20T13:55:18;13.70;;;8.37;;
9034;SDS011;4552;43.422;24.592;2022-11-20T13:58:36;14.63;;;8.23;;
9034;SDS011;4552;43.422;24.592;2022-11-20T14:01:22;12.07;;;6.57;;
9034;SDS011;4552;43.422;24.592;2022-11-20T14:03:56;10.20;;;7.17;;
9034;SDS011;4552;43.422;24.592;2022-11-20T14:06:26;19.83;;;12.77;;
9034;SDS011;4552;43.422;24.592;2022-11-20T14:08:58;16.53;;;10.20;;
9034;SDS011;4552;43.422;24.592;2022-11-20T14:11:26;14.85;;;10.32;;
9034;SDS011;4552;43.422;24.592;2022-11-20T14:13:56;11.93;;;9.53;;
9034;SDS011;4552;43.422;24.592;2022-11-20T14:16:49;9.17;;;6.87;;
9034;SDS011;4552;43.422;24.592;2022-11-20T14:22:25;17.88;;;11.63;;
9034;SDS011;4552;43.422;24.592;2022-11-20T14:25:04;17.97;;;9.43;;
9034;SDS011;4552;43.422;24.592;2022-11-20T14:27:47;13.07;;;8.67;;
9034;SDS011;4552;43.422;24.592;2022-11-20T14:30:23;13.23;;;8.03;;
9034;SDS011;4552;43.422;24.592;2022-11-20T14:32:56;13.67;;;10.10;;
9034;SDS011;4552;43.422;24.592;2022-11-20T14:35:34;16.87;;;10.80;;
9034;SDS011;4552;43.422;24.592;2022-11-20T14:38:09;19.07;;;11.73;;
9034;SDS011;4552;43.422;24.592;2022-11-20T14:40:47;15.87;;;9.97;;
9034;SDS011;4552;43.422;24.592;2022-11-20T14:43:18;16.57;;;9.93;;
9034;SDS011;4552;43.422;24.592;2022-11-20T14:45:54;15.40;;;9.77;;
9034;SDS011;4552;43.422;24.592;2022-11-20T14:48:28;16.30;;;10.60;;
9034;SDS011;4552;43.422;24.592;2022-11-20T14:50:59;17.87;;;11.27;;
9034;SDS011;4552;43.422;24.592;2022-11-20T14:53:35;15.53;;;10.43;;
9034;SDS011;4552;43.422;24.592;2022-11-20T14:56:04;14.17;;;8.10;;
9034;SDS011;4552;43.422;24.592;2022-11-20T14:58:32;15.77;;;8.53;;
9034;SDS011;4552;43.422;24.592;2022-11-20T15:01:01;15.00;;;8.70;;
9034;SDS011;4552;43.422;24.592;2022-11-20T15:03:31;12.40;;;8.10;;
9034;SDS011;4552;43.422;24.592;2022-11-20T15:05:59;13.67;;;8.13;;
9034;SDS011;4552;43.422;24.592;2022-11-20T15:08:32;10.87;;;7.17;;
9034;SDS011;4552;43.422;24.592;2022-11-20T15:11:01;14.17;;;8.40;;
9034;SDS011;4552;43.422;24.592;2022-11-20T15:13:29;12.83;;;7.70;;
9034;SDS011;4552;43.422;24.592;2022-11-20T15:16:00;9.63;;;6.37;;
9034;SDS011;4552;43.422;24.592;2022-11-20T15:18:28;10.07;;;6.77;;
9034;SDS011;4552;43.422;24.592;2022-11-20T15:20:58;16.87;;;8.63;;
9034;SDS011;4552;43.422;24.592;2022-11-20T15:23:28;21.67;;;10.00;;
9034;SDS011;4552;43.422;24.592;2022-11-20T15:25:57;17.77;;;9.10;;
9034;SDS011;4552;43.422;24.592;2022-11-20T15:28:27;14.77;;;8.60;;
9034;SDS011;4552;43.422;24.592;2022-11-20T15:30:56;12.40;;;8.20;;
9034;SDS011;4552;43.422;24.592;2022-11-20T15:33:23;14.97;;;7.50;;
9034;SDS011;4552;43.422;24.592;2022-11-20T15:35:51;11.13;;;6.23;;